Station: Mount Crawford

  Atmospheric Gas Attenuation - ITU Rec 676-11   --------------- db/100km ---------------
Date Time Temp RH % AH g/m3 Dew Point Wind Direction Speed kph Gust kph Barometer mB Rainfall Since 9am 24GHz 47GHz 76GHz 122GHz 134GHz 241GHz
22 13:20 21 81 14.84 17.6 13 15 1013.4 0 32.5 34.1 61.7 162.9 172.8 599.2
22 13:10 20.6 79 14.14 16.8 11 15 1013.5 0 31.0 33.0 58.9 155.5 163.5 566.8
22 13:00 22.4 62 12.31 14.8 22 39 1014 0 27.0 29.3 49.9 131.6 134.7 466.7
22 12:50 24.5 47 10.52 12.5 30 33 1014 0 23.1 25.8 41.8 109.9 108.7 375.8
22 12:40 24.5 47 10.52 12.5 22 24 1014 0 23.1 25.8 41.8 109.9 108.7 375.8
22 12:30 24.3 48 10.62 12.6 22 35 1014 0 23.3 26.0 42.3 111.2 110.2 381.0
22 12:20 24.3 48 10.62 12.6 26 32 1014.1 0 23.3 26.0 42.3 111.2 110.2 381.1
22 12:10 24.2 48 10.56 12.5 19 20 1014.1 0 23.2 26.0 42.1 110.7 109.6 379.0
22 12:00 24.1 48 10.5 12.4 24 39 1013.9 0 23.1 25.9 41.9 110.2 109.0 376.8
22 11:50 23.6 55 11.7 14 22 24 1013.9 0 25.6 27.9 46.8 123.2 124.8 432.0
22 11:40 23.1 58 11.99 14.4 17 20 1013.9 0 26.3 28.5 48.2 127.0 129.3 447.8
22 11:30 22.7 60 12.12 14.5 17 24 1013.8 0 26.6 28.9 49.0 129.0 131.7 456.0
22 11:20 22.1 62 12.1 14.5 17 19 1014 0 26.6 29.0 49.3 129.8 132.5 458.7
22 11:10 21.6 61 11.57 13.8 19 20 1014 0 25.5 28.3 47.4 125.0 126.3 437.1
22 11:00 21.4 60 11.25 13.3 22 30 1014.1 0 24.8 27.9 46.3 121.9 122.5 423.6
22 10:50 21.3 62 11.56 13.7 19 22 1014.4 0 25.5 28.4 47.6 125.4 126.7 438.5
22 10:40 21.1 62 11.42 13.5 22 26 1014.5 0 25.2 28.3 47.2 124.2 125.2 433.2
22 10:30 20.9 63 11.47 13.6 20 28 1014.6 0 25.3 28.4 47.5 125.1 126.2 436.6
22 10:20 20.7 62 11.16 13.2 19 24 1014.7 0 24.7 28.0 46.4 122.1 122.4 423.5
22 10:10 20.6 62 11.1 13.1 20 24 1014.8 0 24.5 27.9 46.2 121.6 121.8 421.3
22 10:00 20.3 64 11.25 13.3 20 30 1014.9 0 24.9 28.3 47.0 123.7 124.3 429.8
22 09:50 20.2 63 11.01 12.9 24 28 1014.7 0 24.4 27.9 46.1 121.2 121.3 419.2
22 09:40 20.3 64 11.25 13.3 17 19 1014.9 0 24.9 28.3 47.0 123.7 124.3 429.8
22 09:30 20.1 63 10.95 12.8 26 33 1014.4 0 24.3 27.8 45.9 120.7 120.6 416.9
22 09:20 19.8 65 11.1 13 22 24 1014.5 0 24.6 28.2 46.7 122.8 123.1 425.5
22 09:10 19.6 67 11.31 13.3 19 24 1014.5 0 25.0 28.6 47.6 125.4 126.2 436.4
22 09:00 19.5 66 11.08 13 26 33 1014.4 0 24.6 28.2 46.7 123.0 123.3 426.1
22 08:50 19 71 11.57 13.6 26 30 1014.4 1.6 25.6 29.2 49.1 129.2 130.7 452.0
22 08:40 18.5 72 11.39 13.4 28 33 1014.3 1.6 25.3 29.1 48.6 128.0 129.1 446.3
22 08:30 18 74 11.37 13.3 30 35 1014.4 1.6 25.3 29.2 48.9 128.6 129.6 448.2
22 08:20 17.8 75 11.38 13.3 30 33 1014.2 1.6 25.3 29.3 49.0 129.1 130.1 449.8
22 08:10 17.5 77 11.48 13.4 28 35 1014.3 1.4 25.5 29.6 49.6 130.7 132.0 456.4
22 08:00 18 71 10.9 12.7 32 44 1014.4 1.4 24.3 28.4 46.9 123.4 123.2 425.9
22 07:50 17.8 72 10.93 12.7 33 41 1014.3 1.4 24.3 28.5 47.1 124.1 123.9 428.4
22 07:40 18.4 70 11.01 12.8 32 37 1014.5 1 24.5 28.5 47.1 124.0 124.1 428.9
22 07:30 18.8 67 10.79 12.5 26 35 1014.4 1 24.0 28.0 46.0 121.0 120.5 416.4
22 07:20 18.3 70 10.94 12.7 26 30 1014.4 1 24.3 28.4 46.9 123.4 123.3 426.1
22 07:10 18.6 66 10.5 12.1 26 28 1014.5 0.8 23.4 27.6 44.9 118.2 117.0 404.0
22 07:00 19.2 60 9.89 11.3 28 39 1014.5 0.4 22.1 26.4 42.2 110.9 108.1 373.3
22 06:50 19.4 58 9.68 10.9 32 35 1014.1 0.4 21.6 26.0 41.2 108.4 105.2 362.8
22 06:40 19.3 58 9.62 10.8 32 35 1013.9 0.2 21.5 25.9 41.1 107.9 104.5 360.6
22 06:30 21.1 48 8.84 9.7 26 35 1013.8 0 19.7 24.3 37.2 97.7 92.6 319.1
22 06:20 21.5 46 8.67 9.4 24 28 1013.8 0 19.4 23.9 36.4 95.6 90.1 310.4
22 06:10 21.5 46 8.67 9.4 22 26 1013.9 0 19.4 23.9 36.4 95.6 90.1 310.4
22 06:00 21.2 47 8.71 9.4 26 33 1013.6 0 19.5 24.0 36.7 96.3 90.9 313.2
22 05:50 22.1 43 8.39 8.9 28 32 1013.5 0 18.8 23.3 35.2 92.2 86.1 296.4
22 05:40 22.4 40 7.94 8.1 20 28 1013.5 0 17.8 22.6 33.4 87.6 80.6 277.1
22 05:30 22.5 40 7.99 8.2 28 37 1013.4 0 17.9 22.7 33.6 88.0 81.0 278.7
22 05:20 22.5 40 7.99 8.2 30 32 1013.4 0 17.9 22.7 33.6 88.0 81.0 278.7
22 05:10 22.6 40 8.03 8.3 30 35 1013.4 0 18.0 22.7 33.7 88.2 81.4 280.0
22 04:50 22.5 40 7.99 8.2 28 32 1013.5 0 17.9 22.7 33.6 88.0 81.0 278.8
22 04:40 22.5 40 7.99 8.2 28 37 1013.3 0 17.9 22.6 33.6 87.9 81.0 278.7
22 04:30 22.6 40 8.03 8.3 30 41 1013.4 0 18.0 22.7 33.7 88.2 81.4 280.0
22 04:20 22.8 39 7.92 8.1 32 37 1013.5 0 17.7 22.5 33.2 87.0 79.9 274.9
22 04:10 23 39 8.02 8.3 30 35 1013.5 0 17.9 22.6 33.5 87.7 80.9 278.3
22 04:00 23 39 8.02 8.3 32 43 1013.6 0 17.9 22.6 33.5 87.7 80.9 278.3
22 03:50 23.2 39 8.11 8.5 30 37 1013.6 0 18.1 22.7 33.7 88.3 81.7 281.2
22 03:40 23.1 39 8.06 8.4 26 30 1013.8 0 18.0 22.6 33.6 88.0 81.3 279.6
22 03:30 23.2 39 8.11 8.5 30 39 1013.7 0 18.1 22.7 33.7 88.3 81.7 281.2
22 03:20 23.4 40 8.41 9 28 35 1013.8 0 18.7 23.0 34.7 90.9 85.0 292.6
22 03:10 23.6 40 8.51 9.2 28 33 1014 0 18.9 23.1 35.0 91.7 85.9 296.0
22 03:00 23.9 40 8.65 9.5 32 39 1013.8 0 19.2 23.3 35.3 92.6 87.2 300.5
22 02:50 24.1 39 8.53 9.3 30 37 1014 0 19.0 23.0 34.8 91.3 85.6 295.0
22 02:40 24.2 39 8.58 9.4 28 32 1014.2 0 19.1 23.1 35.0 91.7 86.1 296.7
22 02:30 24.4 39 8.68 9.6 30 43 1014.3 0 19.3 23.2 35.2 92.4 87.0 300.0
22 02:20 24.8 38 8.65 9.5 32 37 1014.2 0 19.2 23.0 34.9 91.6 86.3 297.3
22 02:10 24.9 38 8.7 9.6 30 35 1014.3 0 19.3 23.1 35.1 92.0 86.7 299.0
22 02:00 24.9 38 8.7 9.6 32 41 1014.5 0 19.3 23.1 35.1 92.0 86.7 299.0
22 01:50 24.9 38 8.7 9.6 28 35 1014.6 0 19.3 23.1 35.1 92.0 86.8 299.0
22 01:40 25 38 8.75 9.7 28 32 1014.7 0 19.4 23.1 35.2 92.4 87.2 300.7
22 01:30 25.2 38 8.85 9.9 30 43 1014.7 0 19.6 23.2 35.5 93.1 88.1 304.0
22 01:20 25.2 37 8.61 9.5 26 28 1014.7 0 19.1 22.9 34.7 90.9 85.4 294.4
22 01:10 25.3 37 8.66 9.6 30 41 1014.7 0 19.2 22.9 34.8 91.2 85.9 296.0
22 01:00 25.4 37 8.71 9.7 32 43 1014.7 0 19.3 23.0 34.9 91.6 86.3 297.6
22 00:50 25.5 37 8.76 9.7 33 43 1014.8 0 19.4 23.0 35.0 91.9 86.8 299.3
22 00:40 25.7 36 8.62 9.5 28 37 1014.8 0 19.1 22.8 34.5 90.4 85.0 293.0
22 00:30 25.6 37 8.81 9.8 32 43 1015 0 19.5 23.1 35.2 92.3 87.3 301.0
22 00:20 25.8 36 8.67 9.6 32 39 1014.9 0 19.2 22.8 34.6 90.8 85.5 294.6
22 00:10 25.8 37 8.91 10 30 37 1015 0 19.7 23.2 35.4 93.0 88.2 304.2
22 00:00 25.9 37 8.96 10.1 32 41 1015.1 0 19.8 23.2 35.6 93.3 88.7 305.8
21 23:50 25.8 37 8.91 10 32 37 1015.1 0 19.7 23.2 35.5 93.0 88.2 304.2
21 23:40 25.9 37 8.96 10.1 30 37 1015.2 0 19.8 23.2 35.6 93.3 88.7 305.9
21 23:30 25.9 37 8.96 10.1 30 39 1015.2 0 19.8 23.2 35.6 93.3 88.7 305.9
21 23:20 26.1 37 9.06 10.3 37 44 1015.2 0 20.0 23.3 35.8 94.0 89.6 309.1
21 23:10 25.8 38 9.15 10.4 28 37 1015.2 0 20.2 23.5 36.3 95.2 91.0 313.8
21 23:00 26.1 37 9.06 10.3 32 43 1015 0 20.0 23.3 35.8 94.0 89.6 309.1
21 22:50 25.8 38 9.15 10.4 26 33 1015 0 20.2 23.5 36.3 95.2 90.9 313.8
21 22:40 26 37 9.01 10.2 30 39 1014.9 0 19.9 23.3 35.7 93.7 89.1 307.4
21 22:30 26 37 9.01 10.2 32 43 1015 0 19.9 23.3 35.7 93.7 89.1 307.4
21 22:20 26.1 38 9.3 10.7 28 33 1015.1 0 20.5 23.7 36.7 96.3 92.3 318.7
21 22:10 26.1 38 9.3 10.7 32 37 1015.1 0 20.5 23.7 36.7 96.3 92.3 318.7
21 22:00 26.4 37 9.21 10.5 30 43 1015 0 20.3 23.5 36.2 95.1 90.9 313.9
21 21:50 26.4 37 9.21 10.5 28 35 1014.9 0 20.3 23.4 36.2 95.1 90.9 313.9
21 21:40 26.4 37 9.21 10.5 24 32 1014.9 0 20.3 23.4 36.2 95.1 90.9 313.9
21 21:30 26.4 37 9.21 10.5 30 39 1014.9 0 20.3 23.4 36.2 95.1 90.9 313.9
21 21:20 26.6 37 9.31 10.7 35 44 1014.9 0 20.5 23.5 36.5 95.7 91.8 317.1
21 21:10 26.5 37 9.26 10.6 28 33 1015 0 20.4 23.5 36.4 95.4 91.4 315.5
21 21:00 26.7 37 9.37 10.8 30 39 1015.1 0 20.6 23.6 36.6 96.2 92.4 319.1
21 20:50 26.5 37 9.26 10.6 24 30 1015 0 20.4 23.5 36.4 95.4 91.4 315.5
21 20:40 26.7 37 9.37 10.8 30 35 1014.9 0 20.6 23.6 36.6 96.2 92.4 319.1

Last Refresh: 22-Jan-2022 13:26:48

Bureau of Meteorology